createdAt,value
2019-01-31T00:00:14.069Z,4.93
2019-01-31T00:03:05.638Z,4.17
2019-01-31T00:05:51.511Z,5.00
2019-01-31T00:08:45.518Z,6.87
2019-01-31T00:11:45.687Z,7.60
2019-01-31T00:14:38.636Z,11.70
2019-01-31T00:17:42.313Z,12.27
2019-01-31T00:20:33.255Z,12.07
2019-01-31T00:23:50.031Z,13.07
2019-01-31T00:26:39.786Z,7.83
2019-01-31T00:29:48.807Z,6.90
2019-01-31T00:32:34.599Z,6.90
2019-01-31T00:35:22.620Z,8.83
2019-01-31T00:38:35.948Z,7.23
2019-01-31T00:41:13.707Z,4.43
2019-01-31T00:43:49.644Z,8.37
2019-01-31T00:46:44.372Z,9.63
2019-01-31T00:49:31.395Z,6.27
2019-01-31T00:52:15.069Z,8.33
2019-01-31T00:55:15.309Z,8.37
2019-01-31T00:58:06.767Z,8.47
2019-01-31T01:00:56.938Z,7.10
2019-01-31T01:04:09.456Z,5.17
2019-01-31T01:07:10.327Z,9.93
2019-01-31T01:10:19.773Z,5.20
2019-01-31T01:13:09.210Z,5.37
2019-01-31T01:16:14.957Z,7.50
2019-01-31T01:18:54.275Z,10.03
2019-01-31T01:22:15.482Z,7.10
2019-01-31T01:25:07.515Z,7.93
2019-01-31T01:28:27.044Z,6.00
2019-01-31T01:31:19.902Z,7.47
2019-01-31T01:34:16.621Z,6.33
2019-01-31T01:37:00.747Z,9.10
2019-01-31T01:40:13.238Z,4.43
2019-01-31T01:43:11.824Z,5.97
2019-01-31T01:46:15.632Z,6.67
2019-01-31T01:49:09.501Z,6.57
2019-01-31T01:52:00.984Z,10.43
2019-01-31T01:54:53.422Z,5.20
2019-01-31T01:57:33.344Z,5.47
2019-01-31T02:00:37.110Z,10.77
2019-01-31T02:03:59.100Z,7.57
2019-01-31T02:06:55.952Z,6.73
2019-01-31T02:09:55.602Z,8.90
2019-01-31T02:12:52.207Z,8.30
2019-01-31T02:16:13.901Z,9.10
2019-01-31T02:19:14.120Z,11.23
2019-01-31T02:22:11.275Z,10.40
2019-01-31T02:24:54.528Z,18.10
2019-01-31T02:27:49.127Z,12.57
2019-01-31T02:30:38.620Z,29.17
2019-01-31T02:33:36.629Z,10.70
2019-01-31T02:36:39.928Z,14.80
2019-01-31T02:40:05.241Z,23.00
2019-01-31T02:42:48.010Z,22.53
2019-01-31T02:46:02.371Z,17.37
2019-01-31T02:48:40.472Z,20.60
2019-01-31T02:51:36.048Z,21.80
2019-01-31T02:54:38.762Z,25.43
2019-01-31T02:57:32.376Z,15.10
2019-01-31T03:00:23.692Z,19.20
2019-01-31T03:03:33.958Z,18.00
2019-01-31T03:06:32.664Z,14.57
2019-01-31T03:09:25.120Z,15.30
2019-01-31T03:12:09.471Z,19.47
2019-01-31T03:15:05.459Z,18.83
2019-01-31T03:17:49.155Z,13.67
2019-01-31T03:20:40.011Z,18.00
2019-01-31T03:23:38.295Z,18.57
2019-01-31T03:26:16.905Z,17.13
2019-01-31T03:29:14.007Z,16.87
2019-01-31T03:32:10.055Z,16.47
2019-01-31T03:35:11.115Z,17.07
2019-01-31T03:38:19.610Z,13.83
2019-01-31T03:41:17.723Z,26.17
2019-01-31T03:44:16.003Z,15.23
2019-01-31T03:47:32.292Z,20.97
2019-01-31T03:50:12.313Z,26.37
2019-01-31T03:53:17.110Z,22.90
2019-01-31T03:56:24.793Z,20.77
2019-01-31T03:59:15.517Z,18.30
2019-01-31T04:02:18.812Z,23.67
2019-01-31T04:05:26.592Z,28.30
2019-01-31T04:07:55.230Z,19.27
2019-01-31T04:10:23.824Z,20.03
2019-01-31T04:12:52.471Z,20.37
2019-01-31T04:15:21.049Z,19.93
2019-01-31T04:17:49.861Z,24.40
2019-01-31T04:20:18.476Z,18.53
2019-01-31T04:22:47.225Z,22.80
2019-01-31T04:25:15.859Z,25.13
2019-01-31T04:27:44.579Z,23.40
2019-01-31T04:30:32.489Z,27.80
2019-01-31T04:33:01.168Z,22.73
2019-01-31T04:35:29.828Z,20.77
2019-01-31T04:37:58.414Z,20.40
2019-01-31T04:40:31.384Z,20.30
2019-01-31T04:42:57.288Z,30.43
2019-01-31T04:45:25.941Z,26.80
2019-01-31T04:47:56.469Z,20.47
2019-01-31T04:50:25.089Z,20.47
2019-01-31T04:52:54.018Z,21.73
2019-01-31T04:55:22.606Z,25.40
2019-01-31T04:57:51.219Z,21.50
2019-01-31T05:00:19.959Z,20.67
2019-01-31T05:02:48.767Z,20.70
2019-01-31T05:05:17.444Z,18.97
2019-01-31T05:07:46.097Z,21.27
2019-01-31T05:10:14.739Z,18.67
2019-01-31T05:12:43.402Z,19.47
2019-01-31T05:15:13.387Z,19.13
2019-01-31T05:17:42.085Z,17.30
2019-01-31T05:20:13.627Z,16.37
2019-01-31T05:22:42.291Z,16.17
2019-01-31T05:25:11.939Z,14.70
2019-01-31T05:27:40.585Z,15.80
2019-01-31T05:30:10.404Z,18.30
2019-01-31T05:32:38.997Z,14.20
2019-01-31T05:35:07.938Z,21.47
2019-01-31T05:37:36.598Z,15.23
2019-01-31T05:40:06.427Z,13.97
2019-01-31T05:42:35.048Z,15.47
2019-01-31T05:45:04.020Z,13.67
2019-01-31T05:47:32.965Z,15.40
2019-01-31T05:50:01.633Z,14.63
2019-01-31T05:52:30.209Z,10.67
2019-01-31T05:54:58.780Z,12.47
2019-01-31T05:57:27.365Z,13.37
2019-01-31T05:59:55.951Z,12.23
2019-01-31T06:02:24.572Z,10.53
2019-01-31T06:04:53.912Z,14.83
2019-01-31T06:07:22.713Z,13.73
2019-01-31T06:09:51.361Z,15.03
2019-01-31T06:12:20.288Z,14.23
2019-01-31T06:14:48.986Z,14.67
2019-01-31T06:17:17.616Z,13.37
2019-01-31T06:19:46.297Z,12.30
2019-01-31T06:22:15.174Z,11.00
2019-01-31T06:24:43.796Z,12.73
2019-01-31T06:27:12.371Z,18.80
2019-01-31T06:29:40.973Z,14.93
2019-01-31T06:32:09.567Z,12.00
2019-01-31T06:34:38.161Z,13.93
2019-01-31T06:37:06.776Z,11.57
2019-01-31T06:39:35.345Z,11.60
2019-01-31T06:42:03.981Z,10.43
2019-01-31T06:44:32.552Z,11.20
2019-01-31T06:47:01.132Z,13.40
2019-01-31T06:49:49.089Z,11.13
2019-01-31T06:52:17.704Z,12.80
2019-01-31T06:54:46.332Z,11.87
2019-01-31T06:57:14.969Z,11.33
2019-01-31T06:59:43.560Z,13.77
2019-01-31T07:02:12.140Z,13.80
2019-01-31T07:04:40.747Z,23.80
2019-01-31T07:07:09.319Z,16.23
2019-01-31T07:09:38.191Z,14.90
2019-01-31T07:12:06.766Z,15.40
2019-01-31T07:14:35.342Z,21.57
2019-01-31T07:17:04.048Z,14.90
2019-01-31T07:19:32.696Z,18.17
2019-01-31T07:22:01.293Z,19.93
2019-01-31T07:24:29.858Z,19.43
2019-01-31T07:26:58.418Z,17.60
2019-01-31T07:29:27.026Z,20.50
2019-01-31T07:31:55.630Z,16.57
2019-01-31T07:34:24.235Z,20.53
2019-01-31T07:36:52.796Z,18.83
2019-01-31T07:39:21.382Z,20.70
2019-01-31T07:41:50.069Z,25.33
2019-01-31T07:44:18.732Z,32.17
2019-01-31T07:46:47.402Z,28.03
2019-01-31T07:49:15.974Z,26.07
2019-01-31T07:51:44.569Z,25.73
2019-01-31T07:54:13.160Z,25.13
2019-01-31T07:56:41.731Z,39.50
2019-01-31T07:59:10.309Z,36.03
2019-01-31T08:01:40.863Z,30.23
2019-01-31T08:04:09.208Z,33.57
2019-01-31T08:06:38.097Z,48.27
2019-01-31T08:09:08.691Z,38.00
2019-01-31T08:11:37.259Z,38.20
2019-01-31T08:14:07.359Z,47.40
2019-01-31T08:16:35.934Z,41.33
2019-01-31T08:19:04.592Z,56.07
2019-01-31T08:21:35.617Z,53.13
2019-01-31T08:24:04.194Z,79.93
2019-01-31T08:26:32.803Z,60.10
2019-01-31T08:29:01.379Z,107.20
2019-01-31T08:31:29.975Z,102.43
2019-01-31T08:33:58.564Z,122.17
2019-01-31T08:36:27.139Z,106.67
2019-01-31T08:38:55.787Z,152.00
2019-01-31T08:41:24.376Z,112.17
2019-01-31T08:43:53.297Z,107.57
2019-01-31T08:46:21.896Z,103.90
2019-01-31T08:48:50.568Z,135.03
2019-01-31T08:51:19.152Z,153.03
2019-01-31T08:53:49.886Z,130.90
2019-01-31T08:56:18.707Z,167.73
2019-01-31T08:58:48.374Z,108.80
2019-01-31T09:01:17.002Z,126.17
2019-01-31T09:03:45.586Z,101.20
2019-01-31T09:06:15.114Z,149.73
2019-01-31T09:08:43.823Z,101.33
2019-01-31T09:11:12.399Z,350.97
2019-01-31T09:13:40.967Z,140.73
2019-01-31T09:16:09.548Z,112.80
2019-01-31T09:18:38.139Z,167.67
2019-01-31T09:21:21.420Z,149.40
2019-01-31T09:24:26.591Z,147.13
2019-01-31T09:27:08.539Z,114.00
2019-01-31T09:30:08.589Z,92.17
2019-01-31T09:32:51.358Z,87.23
2019-01-31T09:35:33.456Z,128.03
2019-01-31T09:38:55.619Z,96.63
2019-01-31T09:41:45.940Z,128.27
2019-01-31T09:44:52.964Z,91.80
2019-01-31T09:47:55.592Z,107.57
2019-01-31T09:50:46.238Z,179.17
2019-01-31T09:53:52.922Z,91.73
2019-01-31T09:56:57.223Z,90.47
2019-01-31T09:59:33.710Z,102.73
2019-01-31T10:02:16.919Z,101.57
2019-01-31T10:05:24.184Z,126.97
2019-01-31T10:08:27.972Z,63.87
2019-01-31T10:11:33.350Z,60.90
2019-01-31T10:14:45.814Z,61.00
2019-01-31T10:17:44.481Z,60.57
2019-01-31T10:20:39.542Z,70.57
2019-01-31T10:23:46.178Z,53.43
2019-01-31T10:27:05.228Z,130.47
2019-01-31T10:30:19.753Z,72.47
2019-01-31T10:33:18.322Z,68.77
2019-01-31T10:36:37.563Z,105.30
2019-01-31T10:39:35.724Z,73.13
2019-01-31T10:42:12.877Z,57.00
2019-01-31T10:45:49.454Z,55.27
2019-01-31T10:48:52.261Z,67.00
2019-01-31T10:51:58.526Z,65.97
2019-01-31T10:54:52.849Z,72.17
2019-01-31T10:57:58.032Z,50.13
2019-01-31T11:00:59.769Z,59.13
2019-01-31T11:04:18.857Z,58.17
2019-01-31T11:07:37.893Z,71.67
2019-01-31T11:10:44.712Z,94.03
2019-01-31T11:13:49.028Z,89.03
2019-01-31T11:16:45.341Z,92.73
2019-01-31T11:19:51.171Z,84.30
2019-01-31T11:22:59.297Z,59.90
2019-01-31T11:26:10.329Z,63.97
2019-01-31T11:28:52.216Z,138.03
2019-01-31T11:31:53.448Z,51.80
2019-01-31T11:34:39.347Z,47.77
2019-01-31T11:37:26.348Z,46.90
2019-01-31T11:40:16.410Z,46.50
2019-01-31T11:43:11.842Z,55.43
2019-01-31T11:45:57.807Z,48.67
2019-01-31T11:48:51.674Z,48.47
2019-01-31T11:51:59.676Z,76.57
2019-01-31T11:55:08.302Z,83.37
2019-01-31T11:57:58.136Z,107.60
2019-01-31T12:00:27.401Z,108.13
2019-01-31T12:02:55.996Z,122.73
2019-01-31T12:05:24.880Z,104.90
2019-01-31T12:07:53.477Z,102.50
2019-01-31T12:10:22.127Z,112.97
2019-01-31T12:12:50.750Z,127.87
2019-01-31T12:15:19.515Z,101.03
2019-01-31T12:17:48.376Z,119.90
2019-01-31T12:20:16.957Z,116.60
2019-01-31T12:22:45.547Z,108.87
2019-01-31T12:25:14.192Z,101.60
2019-01-31T12:27:42.885Z,93.73
2019-01-31T12:30:20.635Z,90.07
2019-01-31T12:32:50.104Z,99.13
2019-01-31T12:35:18.691Z,102.93
2019-01-31T12:38:06.599Z,93.60
2019-01-31T12:40:35.196Z,92.93
2019-01-31T12:43:03.787Z,85.93
2019-01-31T12:45:32.412Z,91.53
2019-01-31T12:48:01.022Z,86.37
2019-01-31T12:50:29.800Z,82.53
2019-01-31T12:52:58.362Z,85.23
2019-01-31T12:55:26.968Z,94.93
2019-01-31T12:57:55.549Z,107.00
2019-01-31T13:00:26.324Z,80.53
2019-01-31T13:02:55.027Z,73.20
2019-01-31T13:05:23.629Z,76.10
2019-01-31T13:07:52.213Z,62.80
2019-01-31T13:10:20.796Z,62.70
2019-01-31T13:12:51.414Z,74.07
2019-01-31T13:15:20.007Z,65.80
2019-01-31T13:17:48.755Z,57.73
2019-01-31T13:20:22.092Z,39.10
2019-01-31T13:22:52.730Z,52.97
2019-01-31T13:25:21.843Z,54.63
2019-01-31T13:28:09.791Z,57.57
2019-01-31T13:30:38.417Z,49.67
2019-01-31T13:33:07.410Z,56.23
2019-01-31T13:35:36.177Z,58.40
2019-01-31T13:38:04.745Z,56.73
2019-01-31T13:40:33.375Z,59.87
2019-01-31T13:43:02.224Z,65.43
2019-01-31T13:45:33.192Z,62.73
2019-01-31T13:48:04.599Z,70.17
2019-01-31T13:50:33.264Z,69.20
2019-01-31T13:53:01.853Z,93.43
2019-01-31T13:55:30.773Z,72.60
2019-01-31T13:57:59.430Z,72.87
2019-01-31T14:00:28.013Z,122.00
2019-01-31T14:02:56.639Z,65.13
2019-01-31T14:05:26.127Z,70.67
2019-01-31T14:07:55.017Z,60.87
2019-01-31T14:10:24.402Z,57.77
2019-01-31T14:12:52.987Z,95.20
2019-01-31T14:15:33.626Z,97.57
2019-01-31T14:17:57.236Z,78.80
2019-01-31T14:20:27.018Z,92.67
2019-01-31T14:22:55.601Z,88.43
2019-01-31T14:25:24.210Z,98.03
2019-01-31T14:27:52.872Z,79.47
2019-01-31T14:30:24.415Z,73.33
2019-01-31T14:32:53.373Z,78.30
2019-01-31T14:35:22.003Z,77.63
2019-01-31T14:37:50.710Z,49.40
2019-01-31T14:40:19.282Z,78.93
2019-01-31T14:42:50.772Z,78.30
2019-01-31T14:45:19.380Z,70.70
2019-01-31T14:47:48.259Z,53.27
2019-01-31T14:50:26.317Z,59.43
2019-01-31T14:52:56.928Z,51.90
2019-01-31T14:55:25.212Z,52.50
2019-01-31T14:57:53.792Z,51.83
2019-01-31T15:00:24.616Z,36.67
2019-01-31T15:02:53.187Z,55.00
2019-01-31T15:05:21.761Z,44.00
2019-01-31T15:07:50.343Z,44.53
2019-01-31T15:10:21.099Z,45.10
2019-01-31T15:12:49.681Z,40.17
2019-01-31T15:15:18.305Z,38.50
2019-01-31T15:17:52.919Z,43.93
2019-01-31T15:20:37.543Z,45.87
2019-01-31T15:22:59.045Z,54.63
2019-01-31T15:25:27.619Z,47.23
2019-01-31T15:27:56.293Z,46.33
2019-01-31T15:30:27.669Z,49.80
2019-01-31T15:32:56.255Z,66.43
2019-01-31T15:35:24.838Z,63.67
2019-01-31T15:37:53.394Z,57.03
2019-01-31T15:40:24.435Z,57.70
2019-01-31T15:42:53.030Z,48.67
2019-01-31T15:45:21.657Z,51.27
2019-01-31T15:47:50.295Z,51.93
2019-01-31T15:50:18.970Z,63.97
2019-01-31T15:52:47.859Z,68.77
2019-01-31T15:55:17.493Z,50.70
2019-01-31T15:57:46.232Z,73.10
2019-01-31T16:00:29.601Z,53.33
2019-01-31T16:02:58.183Z,59.83
2019-01-31T16:05:27.053Z,51.60
2019-01-31T16:07:55.748Z,56.23
2019-01-31T16:10:24.397Z,64.47
2019-01-31T16:12:52.988Z,64.00
2019-01-31T16:15:21.613Z,68.10
2019-01-31T16:17:52.389Z,63.53
2019-01-31T16:20:20.579Z,64.87
2019-01-31T16:22:49.376Z,67.97
2019-01-31T16:25:18.232Z,65.23
2019-01-31T16:27:46.977Z,67.13
2019-01-31T16:30:15.916Z,56.63
2019-01-31T16:32:44.720Z,62.37
2019-01-31T16:35:14.075Z,57.07
2019-01-31T16:37:42.747Z,48.83
2019-01-31T16:40:12.901Z,72.27
2019-01-31T16:42:41.535Z,53.57
2019-01-31T16:45:11.598Z,49.57
2019-01-31T16:47:40.182Z,41.27
2019-01-31T16:50:11.648Z,51.97
2019-01-31T16:52:40.233Z,42.67
2019-01-31T16:55:10.880Z,39.60
2019-01-31T16:57:39.526Z,54.03
2019-01-31T17:00:11.727Z,42.70
2019-01-31T17:02:40.303Z,43.03
2019-01-31T17:05:10.961Z,31.83
2019-01-31T17:07:39.518Z,44.43
2019-01-31T17:10:08.451Z,37.87
2019-01-31T17:12:37.060Z,52.90
2019-01-31T17:15:06.024Z,51.07
2019-01-31T17:17:34.603Z,53.47
2019-01-31T17:20:03.202Z,50.10
2019-01-31T17:22:31.833Z,48.70
2019-01-31T17:25:00.426Z,50.80
2019-01-31T17:27:28.999Z,63.50
2019-01-31T17:29:57.569Z,67.43
2019-01-31T17:32:26.183Z,82.13
2019-01-31T17:34:54.743Z,77.67
2019-01-31T17:37:23.335Z,82.23
2019-01-31T17:39:51.936Z,82.90
2019-01-31T17:42:20.509Z,98.22
2019-01-31T17:44:49.470Z,87.57
2019-01-31T17:47:18.144Z,84.30
2019-01-31T17:49:48.640Z,104.97
2019-01-31T17:52:17.452Z,99.53
2019-01-31T17:54:46.121Z,109.13
2019-01-31T17:57:14.788Z,102.17
2019-01-31T17:59:43.428Z,95.10
2019-01-31T18:02:11.999Z,101.17
2019-01-31T18:04:40.584Z,77.77
2019-01-31T18:07:09.163Z,97.17
2019-01-31T18:09:37.743Z,77.17
2019-01-31T18:12:06.336Z,78.87
2019-01-31T18:14:34.909Z,70.33
2019-01-31T18:17:03.492Z,67.40
2019-01-31T18:19:32.192Z,91.00
2019-01-31T18:22:00.762Z,73.17
2019-01-31T18:24:29.364Z,70.80
2019-01-31T18:26:57.928Z,81.67
2019-01-31T18:29:26.820Z,79.77
2019-01-31T18:31:55.715Z,76.33
2019-01-31T18:34:24.304Z,82.47
2019-01-31T18:36:52.888Z,75.33
2019-01-31T18:39:21.455Z,77.80
2019-01-31T18:41:50.494Z,76.70
2019-01-31T18:44:19.118Z,62.20
2019-01-31T18:46:47.991Z,73.83
2019-01-31T18:49:16.572Z,84.97
2019-01-31T18:51:45.170Z,69.07
2019-01-31T18:54:19.017Z,67.50
2019-01-31T18:56:50.655Z,55.93
2019-01-31T18:59:19.235Z,57.27
2019-01-31T19:01:48.025Z,64.50
2019-01-31T19:04:16.601Z,70.63
2019-01-31T19:06:45.428Z,70.33
2019-01-31T19:09:14.006Z,71.17
2019-01-31T19:11:42.555Z,71.93
2019-01-31T19:14:11.144Z,73.87
2019-01-31T19:16:39.712Z,58.67
2019-01-31T19:19:08.273Z,66.17
2019-01-31T19:21:37.126Z,68.37
2019-01-31T19:24:05.698Z,70.83
2019-01-31T19:26:34.272Z,68.47
2019-01-31T19:29:02.823Z,67.60
2019-01-31T19:31:31.411Z,71.67
2019-01-31T19:34:00.117Z,86.60
2019-01-31T19:36:30.953Z,75.10
2019-01-31T19:38:58.995Z,87.63
2019-01-31T19:41:27.571Z,78.30
2019-01-31T19:43:56.139Z,67.47
2019-01-31T19:46:24.720Z,65.20
2019-01-31T19:48:53.279Z,70.50
2019-01-31T19:51:21.852Z,64.60
2019-01-31T19:53:50.465Z,69.60
2019-01-31T19:56:19.045Z,61.90
2019-01-31T19:58:47.859Z,82.57
2019-01-31T20:01:16.456Z,72.17
2019-01-31T20:03:45.084Z,93.63
2019-01-31T20:06:13.663Z,86.30
2019-01-31T20:08:42.265Z,74.73
2019-01-31T20:11:10.832Z,83.33
2019-01-31T20:13:39.384Z,77.37
2019-01-31T20:16:07.957Z,59.40
2019-01-31T20:18:36.507Z,77.53
2019-01-31T20:21:05.513Z,68.93
2019-01-31T20:23:34.199Z,73.13
2019-01-31T20:26:02.779Z,64.23
2019-01-31T20:28:31.351Z,68.47
2019-01-31T20:30:59.924Z,63.23
2019-01-31T20:33:28.495Z,59.07
2019-01-31T20:35:57.073Z,69.93
2019-01-31T20:38:25.659Z,61.80
2019-01-31T20:40:54.290Z,63.93
2019-01-31T20:43:23.252Z,60.30
2019-01-31T20:45:51.828Z,73.87
2019-01-31T20:48:20.517Z,51.40
2019-01-31T20:50:49.295Z,58.27
2019-01-31T20:53:17.883Z,54.53
2019-01-31T20:55:47.884Z,53.63
2019-01-31T20:58:16.475Z,56.50
2019-01-31T21:00:46.532Z,47.33
2019-01-31T21:03:15.101Z,62.00
2019-01-31T21:05:43.827Z,63.37
2019-01-31T21:08:13.940Z,71.17
2019-01-31T21:10:42.620Z,69.60
2019-01-31T21:13:11.186Z,74.73
2019-01-31T21:15:40.136Z,69.53
2019-01-31T21:18:08.919Z,46.63
2019-01-31T21:20:37.497Z,65.57
2019-01-31T21:23:06.682Z,70.23
2019-01-31T21:25:35.320Z,73.73
2019-01-31T21:28:03.914Z,72.53
2019-01-31T21:30:37.378Z,81.70
2019-01-31T21:33:06.171Z,75.03
2019-01-31T21:35:34.837Z,73.23
2019-01-31T21:38:03.522Z,80.50
2019-01-31T21:40:33.926Z,82.27
2019-01-31T21:43:02.565Z,87.27
2019-01-31T21:45:31.126Z,78.97
2019-01-31T21:47:59.691Z,81.33
2019-01-31T21:50:28.787Z,79.67
2019-01-31T21:52:57.457Z,88.27
2019-01-31T21:55:26.040Z,90.60
2019-01-31T21:57:54.725Z,83.37
2019-01-31T22:00:25.611Z,89.40
2019-01-31T22:02:54.191Z,89.80
2019-01-31T22:05:22.740Z,78.27
2019-01-31T22:07:51.325Z,80.57
2019-01-31T22:10:19.933Z,79.63
2019-01-31T22:12:48.744Z,84.47
2019-01-31T22:15:25.452Z,73.63
2019-01-31T22:17:57.138Z,78.83
2019-01-31T22:20:24.550Z,77.53
2019-01-31T22:22:53.137Z,82.97
2019-01-31T22:25:22.403Z,71.50
2019-01-31T22:27:50.963Z,81.77
2019-01-31T22:30:27.601Z,74.00
2019-01-31T22:32:56.230Z,73.53
2019-01-31T22:35:24.799Z,72.87
2019-01-31T22:37:53.449Z,76.63
2019-01-31T22:40:22.306Z,70.37
2019-01-31T22:42:50.879Z,72.47
2019-01-31T22:45:20.745Z,75.87
2019-01-31T22:47:49.454Z,66.63
2019-01-31T22:50:19.383Z,71.83
2019-01-31T22:52:48.166Z,68.03
2019-01-31T22:55:18.276Z,67.67
2019-01-31T22:57:47.019Z,59.07
2019-01-31T23:00:29.711Z,69.47
2019-01-31T23:02:58.314Z,72.40
2019-01-31T23:05:27.126Z,72.07
2019-01-31T23:07:55.711Z,67.40
2019-01-31T23:10:24.319Z,71.23
2019-01-31T23:12:52.902Z,71.27
2019-01-31T23:15:21.456Z,67.70
2019-01-31T23:17:50.049Z,64.23
2019-01-31T23:20:18.620Z,69.33
2019-01-31T23:22:47.403Z,67.00
2019-01-31T23:25:16.356Z,68.93
2019-01-31T23:27:44.935Z,68.30
2019-01-31T23:30:13.582Z,68.13
2019-01-31T23:32:42.431Z,58.43
2019-01-31T23:35:11.014Z,69.97
2019-01-31T23:37:39.579Z,67.03
2019-01-31T23:40:08.879Z,61.53
2019-01-31T23:42:37.479Z,58.60
2019-01-31T23:45:09.123Z,63.07
2019-01-31T23:47:47.642Z,57.33
2019-01-31T23:50:09.059Z,60.57
2019-01-31T23:52:37.699Z,60.10
2019-01-31T23:55:07.360Z,57.70
2019-01-31T23:57:35.929Z,54.87
